Terminal Aerodrome Forecast
Issued by NWS Louisville, KY

Home | Current Version | Previous Version | Text Only | Print | Product List | Glossary On
Versions: 1 2 3 4 5 6 7 8 9 10 11 12 13 14 15
603
FTUS43 KLMK 212016 AAB
TAFBWG
TAF AMD
KBWG 212016Z 2120/2218 20010KT P6SM SCT250
     FM220600 10004KT P6SM VCSH BKN040 OVC100
     FM221000 11005KT 4SM SHRA BR BKN010=

USA.gov is the U.S. government's official web portal to all federal, state and local government web resources and services.